Time;durP1;ratioP1;P1;durP2;ratioP2;P2;SDS_P1;SDS_P2;PMS_P1;PMS_P2;Temp;Humidity;BMP_temperature;BMP_pressure;BME280_temperature;BME280_humidity;BME280_pressure;Samples;Min_cycle;Max_cycle;Signal;HPM_P1;HPM_P2
2023/09/07 00:00:24;;;;;;;11.00;10.50;;;;;;;;;;5085512;28;20016;-63
2023/09/07 00:02:49;;;;;;;11.30;10.80;;;;;;;;;;5091172;28;20108;-65
2023/09/07 00:05:14;;;;;;;10.75;10.25;;;;;;;;;;5080944;28;20051;-64
2023/09/07 00:07:39;;;;;;;11.32;10.82;;;;;;;;;;5087550;28;20024;-64
2023/09/07 00:10:05;;;;;;;11.00;10.50;;;;;;;;;;5086943;28;20031;-65
2023/09/07 00:12:31;;;;;;;10.65;10.15;;;;;;;;;;5085523;28;20024;-63
2023/09/07 00:15:00;;;;;;;11.10;10.60;;;;;;;;;;5080854;28;20103;-65
2023/09/07 00:17:25;;;;;;;11.00;10.50;;;;;;;;;;5084855;28;20101;-64
2023/09/07 00:19:50;;;;;;;10.88;10.38;;;;;;;;;;5085390;28;20060;-64
2023/09/07 00:22:16;;;;;;;10.88;10.38;;;;;;;;;;5084474;28;20379;-64
2023/09/07 00:24:42;;;;;;;11.10;10.60;;;;;;;;;;5076111;28;20108;-64
2023/09/07 00:27:08;;;;;;;11.10;10.60;;;;;;;;;;5077331;28;20082;-64
2023/09/07 00:29:34;;;;;;;11.25;10.75;;;;;;;;;;5080756;28;20077;-64
2023/09/07 00:31:59;;;;;;;10.93;10.43;;;;;;;;;;5085777;28;20090;-65
2023/09/07 00:34:25;;;;;;;10.82;10.32;;;;;;;;;;5085963;28;20024;-64
2023/09/07 00:36:50;;;;;;;10.80;10.30;;;;;;;;;;5074545;28;20462;-64
2023/09/07 00:39:15;;;;;;;11.30;10.80;;;;;;;;;;5087627;28;20543;-63
2023/09/07 00:41:41;;;;;;;10.90;10.40;;;;;;;;;;5084513;28;20070;-63
2023/09/07 00:44:06;;;;;;;11.00;10.50;;;;;;;;;;5087080;28;20043;-63
2023/09/07 00:46:31;;;;;;;10.52;10.02;;;;;;;;;;5082234;28;20044;-63
2023/09/07 00:48:57;;;;;;;11.10;10.60;;;;;;;;;;5086242;28;20016;-63
2023/09/07 00:51:22;;;;;;;10.82;10.32;;;;;;;;;;5088493;28;20372;-64
2023/09/07 00:53:48;;;;;;;10.93;10.43;;;;;;;;;;5081373;28;20036;-65
2023/09/07 00:56:13;;;;;;;11.05;10.55;;;;;;;;;;5085595;28;20035;-64
2023/09/07 00:58:40;;;;;;;11.00;10.50;;;;;;;;;;5083293;28;20020;-63
2023/09/07 01:01:05;;;;;;;11.10;10.60;;;;;;;;;;5081512;28;20020;-63
2023/09/07 01:03:31;;;;;;;10.82;10.32;;;;;;;;;;5078975;28;20036;-63
2023/09/07 01:06:01;;;;;;;10.85;10.35;;;;;;;;;;5088569;28;20032;-64
2023/09/07 01:08:29;;;;;;;10.77;10.27;;;;;;;;;;5082059;28;20020;-64
2023/09/07 01:10:54;;;;;;;10.50;10.00;;;;;;;;;;5081965;28;20755;-63
2023/09/07 01:13:20;;;;;;;10.68;10.18;;;;;;;;;;5087170;28;20020;-63
2023/09/07 01:15:45;;;;;;;10.95;10.45;;;;;;;;;;5088081;28;20022;-63
2023/09/07 01:18:11;;;;;;;10.93;10.43;;;;;;;;;;5088146;28;20115;-63
2023/09/07 01:20:36;;;;;;;11.10;10.60;;;;;;;;;;5081861;28;20016;-63
2023/09/07 01:23:03;;;;;;;11.00;10.50;;;;;;;;;;5089574;28;20124;-62
2023/09/07 01:25:28;;;;;;;10.80;10.30;;;;;;;;;;5085081;28;20490;-63
2023/09/07 01:27:53;;;;;;;10.90;10.40;;;;;;;;;;5080976;28;20111;-63
2023/09/07 01:30:19;;;;;;;10.77;10.27;;;;;;;;;;5085839;28;20016;-63
2023/09/07 01:32:44;;;;;;;10.65;10.15;;;;;;;;;;5083079;28;20026;-63
2023/09/07 01:35:11;;;;;;;11.32;10.82;;;;;;;;;;5087013;28;20495;-63
2023/09/07 01:37:36;;;;;;;11.10;10.60;;;;;;;;;;5081440;28;20020;-62
2023/09/07 01:40:04;;;;;;;10.90;10.40;;;;;;;;;;5078827;28;20077;-63
2023/09/07 01:42:29;;;;;;;10.80;10.30;;;;;;;;;;5084849;28;20512;-64
2023/09/07 01:44:54;;;;;;;10.75;10.25;;;;;;;;;;5083382;28;20139;-63
2023/09/07 01:47:20;;;;;;;10.80;10.30;;;;;;;;;;5085821;28;20020;-62
2023/09/07 01:49:45;;;;;;;10.48;9.98;;;;;;;;;;5083933;28;20112;-62
2023/09/07 01:52:10;;;;;;;10.90;10.40;;;;;;;;;;5082937;28;20024;-62
2023/09/07 01:54:36;;;;;;;11.13;10.63;;;;;;;;;;5079003;28;20024;-62
2023/09/07 01:57:02;;;;;;;10.93;10.43;;;;;;;;;;5085949;28;20127;-62
2023/09/07 01:59:27;;;;;;;10.80;10.30;;;;;;;;;;5084226;28;20013;-63
2023/09/07 02:01:52;;;;;;;10.48;9.98;;;;;;;;;;5085969;28;20364;-64
2023/09/07 02:04:18;;;;;;;10.80;10.30;;;;;;;;;;5084914;28;20048;-63
2023/09/07 02:06:43;;;;;;;10.63;10.13;;;;;;;;;;5089338;28;20055;-64
2023/09/07 02:09:08;;;;;;;10.73;10.23;;;;;;;;;;5080923;28;20028;-63
2023/09/07 02:11:34;;;;;;;11.55;11.02;;;;;;;;;;5083316;28;20075;-64
2023/09/07 02:13:59;;;;;;;10.73;10.23;;;;;;;;;;5080933;28;20490;-64
2023/09/07 02:16:24;;;;;;;10.82;10.32;;;;;;;;;;5081902;28;20036;-64
2023/09/07 02:18:50;;;;;;;10.60;10.10;;;;;;;;;;5086095;28;20028;-63
2023/09/07 02:21:15;;;;;;;11.07;10.57;;;;;;;;;;5080148;28;20069;-63
2023/09/07 02:23:41;;;;;;;11.00;10.50;;;;;;;;;;5089024;28;20020;-63
2023/09/07 02:26:06;;;;;;;10.93;10.43;;;;;;;;;;5083217;28;20040;-63
2023/09/07 02:28:31;;;;;;;10.68;10.18;;;;;;;;;;5084251;28;20031;-64
2023/09/07 02:31:06;;;;;;;11.02;10.52;;;;;;;;;;5084363;28;20036;-63
2023/09/07 02:33:31;;;;;;;11.00;10.50;;;;;;;;;;5081596;28;20456;-64
2023/09/07 02:35:57;;;;;;;11.52;11.02;;;;;;;;;;5077593;28;20040;-63
2023/09/07 02:38:22;;;;;;;11.20;10.70;;;;;;;;;;5085738;28;20012;-64
2023/09/07 02:40:48;;;;;;;10.82;10.32;;;;;;;;;;5079715;28;20533;-64
2023/09/07 02:43:13;;;;;;;10.77;10.27;;;;;;;;;;5088350;28;20038;-64
2023/09/07 02:45:39;;;;;;;10.85;10.35;;;;;;;;;;5088589;28;20019;-65
2023/09/07 02:48:05;;;;;;;11.10;10.60;;;;;;;;;;5086659;28;20020;-64
2023/09/07 02:50:32;;;;;;;10.80;10.30;;;;;;;;;;5084260;28;20019;-64
2023/09/07 02:52:57;;;;;;;10.82;10.32;;;;;;;;;;5083014;28;20098;-63
2023/09/07 02:55:22;;;;;;;10.60;10.10;;;;;;;;;;5082768;28;21262;-65
2023/09/07 02:57:48;;;;;;;10.98;10.48;;;;;;;;;;5082241;28;20029;-64
2023/09/07 03:00:13;;;;;;;11.10;10.60;;;;;;;;;;5085501;28;20028;-63
2023/09/07 03:02:38;;;;;;;10.60;10.10;;;;;;;;;;5083239;28;20742;-64
2023/09/07 03:05:04;;;;;;;10.73;10.23;;;;;;;;;;5081375;28;20044;-64
2023/09/07 03:07:32;;;;;;;11.05;10.55;;;;;;;;;;5080702;28;20513;-64
2023/09/07 03:09:57;;;;;;;10.80;10.30;;;;;;;;;;5083355;28;20089;-64
2023/09/07 03:12:23;;;;;;;10.60;10.10;;;;;;;;;;5080214;28;20491;-64
2023/09/07 03:14:50;;;;;;;10.85;10.35;;;;;;;;;;5084714;28;20051;-64
2023/09/07 03:17:16;;;;;;;10.80;10.30;;;;;;;;;;5082278;28;20020;-64
2023/09/07 03:19:41;;;;;;;10.98;10.48;;;;;;;;;;5084240;28;20716;-63
2023/09/07 03:22:06;;;;;;;11.23;10.73;;;;;;;;;;5087564;28;20024;-64
2023/09/07 03:24:32;;;;;;;10.82;10.32;;;;;;;;;;5086696;28;20020;-65
2023/09/07 03:26:58;;;;;;;10.65;10.15;;;;;;;;;;5086703;28;20023;-64
2023/09/07 03:29:24;;;;;;;10.75;10.25;;;;;;;;;;5084468;28;20024;-64
2023/09/07 03:31:49;;;;;;;10.63;10.13;;;;;;;;;;5081948;28;20043;-65
2023/09/07 03:34:14;;;;;;;10.77;10.27;;;;;;;;;;5090051;28;20028;-65
2023/09/07 03:36:40;;;;;;;10.70;10.20;;;;;;;;;;5086057;28;20028;-64
2023/09/07 03:39:07;;;;;;;11.30;10.80;;;;;;;;;;5085311;28;20030;-64
2023/09/07 03:41:33;;;;;;;10.85;10.35;;;;;;;;;;5088657;28;20034;-64
2023/09/07 03:43:59;;;;;;;10.95;10.45;;;;;;;;;;5088589;28;20095;-64
2023/09/07 03:46:24;;;;;;;10.85;10.35;;;;;;;;;;5086315;28;20492;-63
2023/09/07 03:48:49;;;;;;;11.00;10.50;;;;;;;;;;5083583;28;20027;-64
2023/09/07 03:51:14;;;;;;;11.15;10.65;;;;;;;;;;5089131;28;20111;-63
2023/09/07 03:53:40;;;;;;;10.82;10.32;;;;;;;;;;5086353;28;20047;-63
2023/09/07 03:56:05;;;;;;;11.07;10.57;;;;;;;;;;5083707;28;20019;-64
2023/09/07 03:58:31;;;;;;;10.68;10.18;;;;;;;;;;5082005;28;20024;-64
2023/09/07 04:00:59;;;;;;;10.95;10.45;;;;;;;;;;5082241;28;20046;-63
2023/09/07 04:03:24;;;;;;;10.90;10.40;;;;;;;;;;5086130;28;20043;-64
2023/09/07 04:05:50;;;;;;;11.18;10.68;;;;;;;;;;5080596;28;20107;-64
2023/09/07 04:08:15;;;;;;;11.05;10.55;;;;;;;;;;5084963;28;20044;-64
2023/09/07 04:10:42;;;;;;;10.95;10.45;;;;;;;;;;5082442;28;20020;-64
2023/09/07 04:13:07;;;;;;;11.00;10.50;;;;;;;;;;5084293;28;20531;-64
2023/09/07 04:15:33;;;;;;;11.00;10.50;;;;;;;;;;5087761;28;20039;-64
2023/09/07 04:17:59;;;;;;;10.77;10.27;;;;;;;;;;5086710;28;20100;-64
2023/09/07 04:20:26;;;;;;;11.02;10.52;;;;;;;;;;5083510;28;20040;-63
2023/09/07 04:22:51;;;;;;;11.10;10.60;;;;;;;;;;5081482;28;20480;-65
2023/09/07 04:25:16;;;;;;;11.00;10.50;;;;;;;;;;5085314;28;20038;-63
2023/09/07 04:27:42;;;;;;;11.75;11.25;;;;;;;;;;5088215;28;20025;-64
2023/09/07 04:30:07;;;;;;;11.75;11.25;;;;;;;;;;5086866;28;20027;-64
2023/09/07 04:32:32;;;;;;;11.30;10.80;;;;;;;;;;5084769;28;20538;-63
2023/09/07 04:34:59;;;;;;;11.75;11.25;;;;;;;;;;5080462;28;20438;-64
2023/09/07 04:37:24;;;;;;;11.65;11.15;;;;;;;;;;5085990;28;20019;-64
2023/09/07 04:39:53;;;;;;;11.43;10.93;;;;;;;;;;5085714;28;20485;-65
2023/09/07 04:42:19;;;;;;;11.80;11.30;;;;;;;;;;5086961;28;20020;-64
2023/09/07 04:44:44;;;;;;;11.48;10.98;;;;;;;;;;5087528;28;20438;-64
2023/09/07 04:47:09;;;;;;;11.80;11.30;;;;;;;;;;5078435;28;20054;-64
2023/09/07 04:49:35;;;;;;;12.00;11.50;;;;;;;;;;5082163;28;20047;-64
2023/09/07 04:52:00;;;;;;;11.48;10.98;;;;;;;;;;5088958;28;20023;-64
2023/09/07 04:54:25;;;;;;;11.77;11.27;;;;;;;;;;5086067;28;20107;-63
2023/09/07 04:56:51;;;;;;;12.05;11.55;;;;;;;;;;5079486;28;20483;-63
2023/09/07 04:59:16;;;;;;;11.85;11.35;;;;;;;;;;5090304;28;20028;-64
2023/09/07 05:01:42;;;;;;;11.70;11.20;;;;;;;;;;5085797;28;20024;-65
2023/09/07 05:04:07;;;;;;;12.10;11.60;;;;;;;;;;5085583;28;20048;-64
2023/09/07 05:06:36;;;;;;;12.00;11.50;;;;;;;;;;5086644;28;20027;-65
2023/09/07 05:09:02;;;;;;;11.70;11.20;;;;;;;;;;5079385;28;20121;-65
2023/09/07 05:11:27;;;;;;;11.57;11.07;;;;;;;;;;5088283;28;20111;-65
2023/09/07 05:13:52;;;;;;;11.77;11.27;;;;;;;;;;5085797;28;20016;-65
2023/09/07 05:16:18;;;;;;;11.80;11.30;;;;;;;;;;5079991;28;20111;-65
2023/09/07 05:18:43;;;;;;;11.70;11.20;;;;;;;;;;5078795;28;20624;-65
2023/09/07 05:21:15;;;;;;;11.85;11.35;;;;;;;;;;5090667;28;20055;-65
2023/09/07 05:23:41;;;;;;;12.10;11.60;;;;;;;;;;5086691;28;20027;-66
2023/09/07 05:26:06;;;;;;;12.10;11.60;;;;;;;;;;5085678;28;20024;-65
2023/09/07 05:28:31;;;;;;;11.95;11.45;;;;;;;;;;5087158;28;20383;-65
2023/09/07 05:30:57;;;;;;;11.77;11.27;;;;;;;;;;5087686;28;20072;-65
2023/09/07 05:33:22;;;;;;;12.03;11.53;;;;;;;;;;5081699;28;20044;-65
2023/09/07 05:35:47;;;;;;;11.90;11.40;;;;;;;;;;5084925;28;20340;-65
2023/09/07 05:38:12;;;;;;;12.07;11.57;;;;;;;;;;5086466;28;20027;-65
2023/09/07 05:40:39;;;;;;;12.00;11.50;;;;;;;;;;5079484;28;20570;-66
2023/09/07 05:43:04;;;;;;;12.02;11.52;;;;;;;;;;5081850;28;20473;-65
2023/09/07 05:45:36;;;;;;;11.93;11.43;;;;;;;;;;5082157;28;20093;-65
2023/09/07 05:48:03;;;;;;;11.88;11.38;;;;;;;;;;5081297;28;20024;-65
2023/09/07 05:50:28;;;;;;;11.90;11.40;;;;;;;;;;5086869;28;20479;-66
2023/09/07 05:52:53;;;;;;;11.80;11.30;;;;;;;;;;5077874;28;20086;-64
2023/09/07 05:55:19;;;;;;;11.67;11.17;;;;;;;;;;5082752;28;20032;-65
2023/09/07 05:57:44;;;;;;;11.82;11.32;;;;;;;;;;5086343;28;20024;-64
2023/09/07 06:00:10;;;;;;;12.00;11.50;;;;;;;;;;5080590;28;20025;-64
2023/09/07 06:02:35;;;;;;;11.80;11.30;;;;;;;;;;5087412;28;20024;-65
2023/09/07 06:05:01;;;;;;;11.90;11.40;;;;;;;;;;5083662;28;20097;-65
2023/09/07 06:07:26;;;;;;;12.00;11.50;;;;;;;;;;5082306;28;20016;-64
2023/09/07 06:09:51;;;;;;;11.83;11.33;;;;;;;;;;5080152;28;20020;-65
2023/09/07 06:12:17;;;;;;;12.20;11.70;;;;;;;;;;5082939;28;20041;-65
2023/09/07 06:14:44;;;;;;;11.57;11.07;;;;;;;;;;5084691;28;20030;-67
2023/09/07 06:17:09;;;;;;;11.40;10.90;;;;;;;;;;5082163;28;20670;-66
2023/09/07 06:19:35;;;;;;;11.55;11.05;;;;;;;;;;5083549;28;20020;-65
2023/09/07 06:22:00;;;;;;;11.80;11.30;;;;;;;;;;5082349;28;20020;-65
2023/09/07 06:24:25;;;;;;;11.90;11.40;;;;;;;;;;5086377;28;20744;-66
2023/09/07 06:26:51;;;;;;;11.67;11.17;;;;;;;;;;5085600;28;20032;-67
2023/09/07 06:29:16;;;;;;;11.45;10.95;;;;;;;;;;5085146;28;20256;-66
2023/09/07 06:31:41;;;;;;;11.20;10.70;;;;;;;;;;5083712;28;20111;-66
2023/09/07 06:34:07;;;;;;;11.90;11.40;;;;;;;;;;5084725;28;20080;-64
2023/09/07 06:36:32;;;;;;;11.57;11.07;;;;;;;;;;5082956;28;20099;-63
2023/09/07 06:38:58;;;;;;;11.50;11.00;;;;;;;;;;5083825;28;20626;-63
2023/09/07 06:41:24;;;;;;;11.75;11.25;;;;;;;;;;5083152;28;20032;-64
2023/09/07 06:43:49;;;;;;;11.90;11.40;;;;;;;;;;5085708;28;20077;-63
2023/09/07 06:46:14;;;;;;;11.80;11.30;;;;;;;;;;5088923;28;20625;-62
2023/09/07 06:48:39;;;;;;;11.30;10.80;;;;;;;;;;5080751;28;20024;-63
2023/09/07 06:51:05;;;;;;;11.40;10.90;;;;;;;;;;5082263;28;20115;-62
2023/09/07 06:53:31;;;;;;;11.63;11.13;;;;;;;;;;5085863;28;20252;-63
2023/09/07 06:56:00;;;;;;;11.75;11.25;;;;;;;;;;5081608;28;20028;-63
2023/09/07 06:58:25;;;;;;;11.57;11.07;;;;;;;;;;5082083;28;20035;-62
2023/09/07 07:00:50;;;;;;;11.90;11.40;;;;;;;;;;5084638;28;20016;-69
2023/09/07 07:03:15;;;;;;;12.27;11.77;;;;;;;;;;5083270;28;20020;-62
2023/09/07 07:05:42;;;;;;;11.90;11.40;;;;;;;;;;5082992;28;20268;-63
2023/09/07 07:08:07;;;;;;;11.70;11.20;;;;;;;;;;5085264;28;20352;-62
2023/09/07 07:10:33;;;;;;;11.88;11.38;;;;;;;;;;5087364;28;20646;-64
2023/09/07 07:12:58;;;;;;;12.10;11.60;;;;;;;;;;5081936;28;20016;-63
2023/09/07 07:15:23;;;;;;;11.87;11.37;;;;;;;;;;5083426;28;20039;-64
2023/09/07 07:17:48;;;;;;;11.90;11.40;;;;;;;;;;5083286;28;20308;-64
2023/09/07 07:20:14;;;;;;;11.65;11.15;;;;;;;;;;5080774;28;20261;-63
2023/09/07 07:22:39;;;;;;;11.95;11.45;;;;;;;;;;5086017;28;20396;-63
2023/09/07 07:25:05;;;;;;;11.60;11.10;;;;;;;;;;5084684;28;20578;-69
2023/09/07 07:27:31;;;;;;;11.65;11.15;;;;;;;;;;5084875;28;20340;-69
2023/09/07 07:29:56;;;;;;;11.57;11.07;;;;;;;;;;5080325;28;20020;-69
2023/09/07 07:32:21;;;;;;;11.67;11.17;;;;;;;;;;5083006;28;20475;-68
2023/09/07 07:34:47;;;;;;;11.80;11.30;;;;;;;;;;5084069;28;20289;-69
2023/09/07 07:37:12;;;;;;;11.88;11.38;;;;;;;;;;5084661;28;20024;-64
2023/09/07 07:39:37;;;;;;;11.65;11.15;;;;;;;;;;5079930;28;20202;-62
2023/09/07 07:42:04;;;;;;;11.80;11.30;;;;;;;;;;5086994;28;20107;-62
2023/09/07 07:44:29;;;;;;;11.43;10.93;;;;;;;;;;5082513;28;20027;-64
2023/09/07 07:46:55;;;;;;;11.52;11.02;;;;;;;;;;5083171;28;20095;-63
2023/09/07 07:49:20;;;;;;;11.80;11.30;;;;;;;;;;5076348;28;20444;-63
2023/09/07 07:51:45;;;;;;;12.05;11.55;;;;;;;;;;5080286;28;20264;-65
2023/09/07 07:54:11;;;;;;;11.90;11.40;;;;;;;;;;5083384;28;20032;-64
2023/09/07 07:56:36;;;;;;;11.50;11.00;;;;;;;;;;5076291;28;20078;-67
2023/09/07 07:59:02;;;;;;;11.80;11.30;;;;;;;;;;5085820;28;20024;-65
2023/09/07 08:01:27;;;;;;;12.00;11.50;;;;;;;;;;5083526;28;21098;-65
2023/09/07 08:03:53;;;;;;;12.05;11.55;;;;;;;;;;5083561;28;20624;-63
2023/09/07 08:06:18;;;;;;;11.70;11.20;;;;;;;;;;5087349;28;20114;-65
2023/09/07 08:08:43;;;;;;;11.90;11.40;;;;;;;;;;5079487;28;20060;-65
2023/09/07 08:11:09;;;;;;;11.77;11.27;;;;;;;;;;5080686;28;20119;-65
2023/09/07 08:13:35;;;;;;;11.88;11.38;;;;;;;;;;5083741;28;20091;-65
2023/09/07 08:16:02;;;;;;;11.95;11.45;;;;;;;;;;5086421;28;20449;-65
2023/09/07 08:18:28;;;;;;;12.13;11.63;;;;;;;;;;5081533;28;20027;-65
2023/09/07 08:20:54;;;;;;;12.13;11.63;;;;;;;;;;5079103;28;20402;-64
2023/09/07 08:23:20;;;;;;;11.80;11.30;;;;;;;;;;5085581;28;20028;-65
2023/09/07 08:25:46;;;;;;;11.70;11.20;;;;;;;;;;5080402;28;20027;-64
2023/09/07 08:28:12;;;;;;;11.98;11.48;;;;;;;;;;5081396;28;20128;-64
2023/09/07 08:30:37;;;;;;;11.93;11.43;;;;;;;;;;5080877;28;20099;-63
2023/09/07 08:33:05;;;;;;;11.88;11.38;;;;;;;;;;5079003;28;20017;-65
2023/09/07 08:35:30;;;;;;;12.00;11.50;;;;;;;;;;5081004;28;20024;-64
2023/09/07 08:37:57;;;;;;;12.10;11.60;;;;;;;;;;5080514;28;20020;-63
2023/09/07 08:40:23;;;;;;;12.40;11.88;;;;;;;;;;5082750;28;20581;-64
2023/09/07 08:42:48;;;;;;;12.30;11.80;;;;;;;;;;5087975;28;20103;-66
2023/09/07 08:45:18;;;;;;;12.45;11.90;;;;;;;;;;5085310;28;20464;-65
2023/09/07 08:47:44;;;;;;;12.00;11.50;;;;;;;;;;5083909;28;20024;-64
2023/09/07 08:50:10;;;;;;;12.10;11.60;;;;;;;;;;5078885;28;20044;-63
2023/09/07 08:52:35;;;;;;;11.98;11.48;;;;;;;;;;5081448;28;20071;-64
2023/09/07 08:55:04;;;;;;;11.70;11.20;;;;;;;;;;5082966;28;20303;-63
2023/09/07 08:57:29;;;;;;;11.80;11.30;;;;;;;;;;5078861;28;20406;-64
2023/09/07 08:59:55;;;;;;;11.73;11.23;;;;;;;;;;5080025;28;20027;-65
2023/09/07 09:02:20;;;;;;;12.02;11.52;;;;;;;;;;5085980;28;20016;-64
2023/09/07 09:04:45;;;;;;;12.10;11.60;;;;;;;;;;5083500;28;20048;-64
2023/09/07 09:07:11;;;;;;;11.90;11.40;;;;;;;;;;5084257;28;20054;-66
2023/09/07 09:09:38;;;;;;;12.18;11.68;;;;;;;;;;5086712;28;20260;-64
2023/09/07 09:12:09;;;;;;;12.07;11.57;;;;;;;;;;5085139;28;20425;-63
2023/09/07 09:14:35;;;;;;;12.15;11.65;;;;;;;;;;5079798;28;20495;-63
2023/09/07 09:17:00;;;;;;;12.20;11.70;;;;;;;;;;5087237;28;20024;-61
2023/09/07 09:19:35;;;;;;;12.00;11.50;;;;;;;;;;5088033;28;20460;-63
2023/09/07 09:22:01;;;;;;;12.05;11.55;;;;;;;;;;5080484;28;20111;-63
2023/09/07 09:24:26;;;;;;;11.77;11.27;;;;;;;;;;5081381;28;20107;-62
2023/09/07 09:26:52;;;;;;;12.13;11.63;;;;;;;;;;5078693;28;20037;-63
2023/09/07 09:29:21;;;;;;;12.10;11.60;;;;;;;;;;5080777;28;20043;-63
2023/09/07 09:31:46;;;;;;;12.27;11.77;;;;;;;;;;5078682;28;20133;-63
2023/09/07 09:34:12;;;;;;;11.85;11.35;;;;;;;;;;5081583;28;20404;-63
2023/09/07 09:36:37;;;;;;;11.70;11.20;;;;;;;;;;5084195;28;20048;-63
2023/09/07 09:39:03;;;;;;;12.25;11.75;;;;;;;;;;5083069;28;20527;-65
2023/09/07 09:41:31;;;;;;;11.75;11.25;;;;;;;;;;5083757;28;20020;-64
2023/09/07 09:43:56;;;;;;;11.70;11.20;;;;;;;;;;5083271;28;20491;-66
2023/09/07 09:46:22;;;;;;;11.90;11.40;;;;;;;;;;5085014;28;20036;-62
2023/09/07 09:48:47;;;;;;;12.02;11.52;;;;;;;;;;5082069;28;20558;-63
2023/09/07 09:51:14;;;;;;;11.75;11.25;;;;;;;;;;5083262;28;20025;-60
2023/09/07 09:53:39;;;;;;;12.10;11.60;;;;;;;;;;5081627;28;20032;-60
2023/09/07 09:56:04;;;;;;;12.00;11.50;;;;;;;;;;5086338;28;20024;-62
2023/09/07 09:58:30;;;;;;;11.47;10.97;;;;;;;;;;5089013;28;20016;-64
2023/09/07 10:00:57;;;;;;;12.02;11.52;;;;;;;;;;5084613;28;20737;-62
2023/09/07 10:03:33;;;;;;;11.60;11.10;;;;;;;;;;5088282;28;20073;-68
2023/09/07 10:06:08;;;;;;;11.80;11.30;;;;;;;;;;5085921;28;20448;-63
2023/09/07 10:08:34;;;;;;;11.88;11.38;;;;;;;;;;5077306;28;20487;-63
2023/09/07 10:10:59;;;;;;;11.48;10.98;;;;;;;;;;5084895;28;20047;-61
2023/09/07 10:13:29;;;;;;;11.43;10.93;;;;;;;;;;5075333;28;20048;-61
2023/09/07 10:16:07;;;;;;;11.60;11.10;;;;;;;;;;5081222;28;20020;-59
2023/09/07 10:18:41;;;;;;;12.02;11.52;;;;;;;;;;5080441;28;20027;-60
2023/09/07 10:21:06;;;;;;;11.88;11.38;;;;;;;;;;5077847;28;20026;-63
2023/09/07 10:23:36;;;;;;;11.98;11.48;;;;;;;;;;5079112;28;20028;-64
2023/09/07 10:26:04;;;;;;;11.85;11.35;;;;;;;;;;5074823;28;20020;-62
2023/09/07 10:28:29;;;;;;;11.93;11.43;;;;;;;;;;5083441;28;20028;-62
2023/09/07 10:30:59;;;;;;;11.52;11.02;;;;;;;;;;5082742;28;20077;-63
2023/09/07 10:33:24;;;;;;;11.87;11.37;;;;;;;;;;5075208;28;20456;-63
2023/09/07 10:35:49;;;;;;;11.88;11.38;;;;;;;;;;5084544;28;20249;-63
2023/09/07 10:38:15;;;;;;;12.10;11.60;;;;;;;;;;5082499;28;20028;-64
2023/09/07 10:40:43;;;;;;;12.23;11.73;;;;;;;;;;5087082;28;20335;-65
2023/09/07 10:43:09;;;;;;;12.15;11.65;;;;;;;;;;5085147;28;20609;-64
2023/09/07 10:45:34;;;;;;;12.70;12.10;;;;;;;;;;5083187;28;20066;-64
2023/09/07 10:47:59;;;;;;;11.63;11.13;;;;;;;;;;5082263;28;20114;-63
2023/09/07 10:50:25;;;;;;;11.98;11.48;;;;;;;;;;5082887;28;20101;-67
2023/09/07 10:52:50;;;;;;;12.02;11.52;;;;;;;;;;5084937;28;20042;-62
2023/09/07 10:55:16;;;;;;;12.30;11.70;;;;;;;;;;5085751;28;20135;-64
2023/09/07 10:57:44;;;;;;;12.25;11.75;;;;;;;;;;5082399;28;20099;-62
2023/09/07 11:00:10;;;;;;;12.00;11.50;;;;;;;;;;5082988;28;20548;-63
2023/09/07 11:02:38;;;;;;;11.80;11.30;;;;;;;;;;5083848;28;20016;-64
2023/09/07 11:05:04;;;;;;;12.02;11.52;;;;;;;;;;5084064;28;20089;-64
2023/09/07 11:07:30;;;;;;;11.70;11.20;;;;;;;;;;5087850;28;20038;-67
2023/09/07 11:09:55;;;;;;;11.70;11.20;;;;;;;;;;5086270;28;20043;-66
2023/09/07 11:12:21;;;;;;;11.80;11.30;;;;;;;;;;5084743;28;20066;-67
2023/09/07 11:14:48;;;;;;;11.95;11.45;;;;;;;;;;5082546;28;20326;-68
2023/09/07 11:17:13;;;;;;;11.88;11.38;;;;;;;;;;5087906;28;20103;-67
2023/09/07 11:19:38;;;;;;;11.68;11.18;;;;;;;;;;5082543;28;20107;-67
2023/09/07 11:22:04;;;;;;;11.67;11.17;;;;;;;;;;5084738;28;20407;-65
2023/09/07 11:24:30;;;;;;;11.75;11.25;;;;;;;;;;5078823;28;20261;-63
2023/09/07 11:26:57;;;;;;;11.93;11.43;;;;;;;;;;5077806;28;20021;-64
2023/09/07 11:29:22;;;;;;;11.90;11.40;;;;;;;;;;5077979;28;20084;-64
2023/09/07 11:31:48;;;;;;;12.15;11.65;;;;;;;;;;5082168;28;20479;-70
2023/09/07 11:34:14;;;;;;;12.00;11.50;;;;;;;;;;5083558;28;20069;-62
2023/09/07 11:36:40;;;;;;;11.88;11.38;;;;;;;;;;5082939;28;20031;-66
2023/09/07 11:39:11;;;;;;;11.75;11.25;;;;;;;;;;5081962;28;20112;-62
2023/09/07 11:41:37;;;;;;;11.75;11.25;;;;;;;;;;5084356;28;20039;-64
2023/09/07 11:44:03;;;;;;;11.77;11.27;;;;;;;;;;5086963;28;20489;-65
2023/09/07 11:46:28;;;;;;;11.90;11.40;;;;;;;;;;5079951;28;20072;-62
2023/09/07 11:48:53;;;;;;;11.70;11.20;;;;;;;;;;5082691;28;20030;-63
2023/09/07 11:51:19;;;;;;;11.63;11.13;;;;;;;;;;5084205;28;20034;-65
2023/09/07 11:53:44;;;;;;;11.77;11.27;;;;;;;;;;5082871;28;20767;-65
2023/09/07 11:56:09;;;;;;;11.77;11.27;;;;;;;;;;5085568;28;20063;-64
2023/09/07 11:58:34;;;;;;;12.00;11.50;;;;;;;;;;5085368;28;20055;-64
2023/09/07 12:01:00;;;;;;;11.75;11.25;;;;;;;;;;5079551;28;22640;-63
2023/09/07 12:03:25;;;;;;;12.15;11.65;;;;;;;;;;5084450;28;20031;-63
2023/09/07 12:05:51;;;;;;;11.70;11.20;;;;;;;;;;5084172;28;20407;-63
2023/09/07 12:08:16;;;;;;;11.68;11.18;;;;;;;;;;5079707;28;20016;-65
2023/09/07 12:10:41;;;;;;;11.80;11.30;;;;;;;;;;5080268;28;20085;-65
2023/09/07 12:13:07;;;;;;;12.50;11.90;;;;;;;;;;5080699;28;20036;-62
2023/09/07 12:15:32;;;;;;;11.82;11.32;;;;;;;;;;5082232;28;20321;-64
2023/09/07 12:17:57;;;;;;;12.20;11.70;;;;;;;;;;5085161;28;20047;-62
2023/09/07 12:20:23;;;;;;;11.52;11.02;;;;;;;;;;5081770;28;20021;-63
2023/09/07 12:22:48;;;;;;;11.63;11.13;;;;;;;;;;5085185;28;20107;-63
2023/09/07 12:25:15;;;;;;;12.10;11.60;;;;;;;;;;5084091;28;20267;-62
2023/09/07 12:27:42;;;;;;;11.98;11.48;;;;;;;;;;5083314;28;20560;-65
2023/09/07 12:30:12;;;;;;;11.75;11.25;;;;;;;;;;5085549;28;20104;-64
2023/09/07 12:32:37;;;;;;;11.90;11.40;;;;;;;;;;5083631;28;20124;-64
2023/09/07 12:35:05;;;;;;;11.43;10.93;;;;;;;;;;5083864;28;20113;-64
2023/09/07 12:37:30;;;;;;;11.85;11.35;;;;;;;;;;5081583;28;20034;-64
2023/09/07 12:39:55;;;;;;;11.50;11.00;;;;;;;;;;5081538;28;20111;-65
2023/09/07 12:42:21;;;;;;;11.70;11.20;;;;;;;;;;5082972;28;20647;-66
2023/09/07 12:44:46;;;;;;;11.60;11.10;;;;;;;;;;5081154;28;20494;-64
2023/09/07 12:47:12;;;;;;;11.90;11.40;;;;;;;;;;5085020;28;20024;-64
2023/09/07 12:49:37;;;;;;;11.73;11.23;;;;;;;;;;5081864;28;20104;-64
2023/09/07 12:52:08;;;;;;;12.50;11.90;;;;;;;;;;5081388;28;20467;-65
2023/09/07 12:54:33;;;;;;;11.80;11.30;;;;;;;;;;5117084;27;20040;-63
2023/09/07 12:56:59;;;;;;;12.00;11.50;;;;;;;;;;5079223;28;20123;-64
2023/09/07 12:59:24;;;;;;;11.80;11.30;;;;;;;;;;5082645;28;20020;-64
2023/09/07 13:01:50;;;;;;;11.87;11.37;;;;;;;;;;5083854;28;20284;-64
2023/09/07 13:04:15;;;;;;;11.75;11.25;;;;;;;;;;5083744;28;20281;-64
2023/09/07 13:06:41;;;;;;;11.43;10.93;;;;;;;;;;5081746;28;20027;-64
2023/09/07 13:09:07;;;;;;;11.63;11.13;;;;;;;;;;5084885;28;20050;-64
2023/09/07 13:11:33;;;;;;;11.85;11.35;;;;;;;;;;5086710;28;20032;-64
2023/09/07 13:13:59;;;;;;;11.60;11.10;;;;;;;;;;5080929;28;20376;-63
2023/09/07 13:16:26;;;;;;;12.00;11.50;;;;;;;;;;5082414;28;20016;-64
2023/09/07 13:18:51;;;;;;;11.65;11.15;;;;;;;;;;5084287;28;20031;-66
2023/09/07 13:21:16;;;;;;;11.97;11.47;;;;;;;;;;5081136;28;20016;-63
2023/09/07 13:23:41;;;;;;;12.00;11.50;;;;;;;;;;5076724;28;20292;-64
2023/09/07 13:26:07;;;;;;;11.57;11.07;;;;;;;;;;5076340;28;20395;-65
2023/09/07 13:28:32;;;;;;;11.88;11.38;;;;;;;;;;5084413;28;20515;-64
2023/09/07 13:30:57;;;;;;;12.00;11.50;;;;;;;;;;5080020;28;20548;-65
2023/09/07 13:33:23;;;;;;;11.25;10.75;;;;;;;;;;5081113;28;20267;-64
2023/09/07 13:35:48;;;;;;;11.50;11.00;;;;;;;;;;5080163;28;20040;-66
2023/09/07 13:38:14;;;;;;;11.70;11.20;;;;;;;;;;5080346;28;20025;-65
2023/09/07 13:40:39;;;;;;;12.02;11.52;;;;;;;;;;5083807;28;20021;-66
2023/09/07 13:43:04;;;;;;;11.88;11.38;;;;;;;;;;5082063;28;20012;-65
2023/09/07 13:45:30;;;;;;;11.57;11.07;;;;;;;;;;5083573;28;20394;-65
2023/09/07 13:47:55;;;;;;;11.88;11.38;;;;;;;;;;5080561;28;20036;-65
2023/09/07 13:50:21;;;;;;;12.00;11.50;;;;;;;;;;5082701;28;20074;-65
2023/09/07 13:52:46;;;;;;;11.70;11.20;;;;;;;;;;5080906;28;20081;-65
2023/09/07 13:55:11;;;;;;;11.82;11.32;;;;;;;;;;5083541;28;20051;-64
2023/09/07 13:57:37;;;;;;;11.70;11.20;;;;;;;;;;5082331;28;20031;-63
2023/09/07 14:00:02;;;;;;;11.80;11.30;;;;;;;;;;5081786;28;20115;-63
2023/09/07 14:02:28;;;;;;;11.70;11.20;;;;;;;;;;5080339;28;20045;-63
2023/09/07 14:04:53;;;;;;;11.47;10.97;;;;;;;;;;5077893;28;20556;-61
2023/09/07 14:07:19;;;;;;;11.85;11.35;;;;;;;;;;5080215;28;20261;-62